sensor_id;sensor_type;location;lat;lon;timestamp;temperature;humidity
20845;DHT22;10583;49.084;8.646;2023-02-28T00:01:14;-1.20;99.90
20845;DHT22;10583;49.084;8.646;2023-02-28T00:03:43;-1.10;99.90
20845;DHT22;10583;49.084;8.646;2023-02-28T00:06:09;-1.20;99.90
20845;DHT22;10583;49.084;8.646;2023-02-28T00:08:37;-1.20;99.90
20845;DHT22;10583;49.084;8.646;2023-02-28T00:11:05;-1.20;99.90
20845;DHT22;10583;49.084;8.646;2023-02-28T00:13:34;-1.20;99.90
20845;DHT22;10583;49.084;8.646;2023-02-28T00:16:02;-1.20;99.90
20845;DHT22;10583;49.084;8.646;2023-02-28T00:18:28;-1.20;99.90
20845;DHT22;10583;49.084;8.646;2023-02-28T00:20:57;-1.20;99.90
20845;DHT22;10583;49.084;8.646;2023-02-28T00:23:24;-1.20;99.90
20845;DHT22;10583;49.084;8.646;2023-02-28T00:25:51;-1.20;99.90
20845;DHT22;10583;49.084;8.646;2023-02-28T00:28:18;-1.20;99.90
20845;DHT22;10583;49.084;8.646;2023-02-28T00:30:45;-1.20;99.90
20845;DHT22;10583;49.084;8.646;2023-02-28T00:33:11;-1.20;99.90
20845;DHT22;10583;49.084;8.646;2023-02-28T00:35:38;-1.20;99.90
20845;DHT22;10583;49.084;8.646;2023-02-28T00:38:06;-1.20;99.90
20845;DHT22;10583;49.084;8.646;2023-02-28T00:40:33;-1.20;99.90
20845;DHT22;10583;49.084;8.646;2023-02-28T00:43:00;-1.30;99.90
20845;DHT22;10583;49.084;8.646;2023-02-28T00:45:27;-1.20;99.90
20845;DHT22;10583;49.084;8.646;2023-02-28T00:47:53;-1.20;99.90
20845;DHT22;10583;49.084;8.646;2023-02-28T00:50:20;-1.20;99.90
20845;DHT22;10583;49.084;8.646;2023-02-28T00:52:47;-1.20;99.90
20845;DHT22;10583;49.084;8.646;2023-02-28T00:55:15;-1.20;99.90
20845;DHT22;10583;49.084;8.646;2023-02-28T00:57:42;-1.20;99.90
20845;DHT22;10583;49.084;8.646;2023-02-28T01:00:10;-1.20;99.90
20845;DHT22;10583;49.084;8.646;2023-02-28T01:02:37;-1.20;99.90
20845;DHT22;10583;49.084;8.646;2023-02-28T01:05:04;-1.20;99.90
20845;DHT22;10583;49.084;8.646;2023-02-28T01:07:32;-1.20;99.90
20845;DHT22;10583;49.084;8.646;2023-02-28T01:09:58;-1.20;99.90
20845;DHT22;10583;49.084;8.646;2023-02-28T01:12:26;-1.20;99.90
20845;DHT22;10583;49.084;8.646;2023-02-28T01:14:53;-1.20;99.90
20845;DHT22;10583;49.084;8.646;2023-02-28T01:17:20;-1.30;99.90
20845;DHT22;10583;49.084;8.646;2023-02-28T01:19:47;-1.30;99.90
20845;DHT22;10583;49.084;8.646;2023-02-28T01:22:13;-1.30;99.90
20845;DHT22;10583;49.084;8.646;2023-02-28T01:24:40;-1.30;99.90
20845;DHT22;10583;49.084;8.646;2023-02-28T01:27:07;-1.30;99.90
20845;DHT22;10583;49.084;8.646;2023-02-28T01:29:38;-1.30;99.90
20845;DHT22;10583;49.084;8.646;2023-02-28T01:32:05;-1.30;99.90
20845;DHT22;10583;49.084;8.646;2023-02-28T01:34:31;-1.30;99.90
20845;DHT22;10583;49.084;8.646;2023-02-28T01:36:58;-1.40;99.90
20845;DHT22;10583;49.084;8.646;2023-02-28T01:39:25;-1.40;99.90
20845;DHT22;10583;49.084;8.646;2023-02-28T01:41:52;-1.40;99.90
20845;DHT22;10583;49.084;8.646;2023-02-28T01:44:59;-1.40;99.90
20845;DHT22;10583;49.084;8.646;2023-02-28T01:47:29;-1.40;99.90
20845;DHT22;10583;49.084;8.646;2023-02-28T01:49:58;-1.50;99.90
20845;DHT22;10583;49.084;8.646;2023-02-28T01:52:27;-1.50;99.90
20845;DHT22;10583;49.084;8.646;2023-02-28T01:54:56;-1.40;99.90
20845;DHT22;10583;49.084;8.646;2023-02-28T01:57:27;-1.40;99.90
20845;DHT22;10583;49.084;8.646;2023-02-28T02:00:00;-1.40;99.90
20845;DHT22;10583;49.084;8.646;2023-02-28T02:02:30;-1.50;99.90
20845;DHT22;10583;49.084;8.646;2023-02-28T02:05:00;-1.40;99.90
20845;DHT22;10583;49.084;8.646;2023-02-28T02:07:30;-1.40;99.90
20845;DHT22;10583;49.084;8.646;2023-02-28T02:10:04;-1.40;99.90
20845;DHT22;10583;49.084;8.646;2023-02-28T02:12:51;-1.40;99.90
20845;DHT22;10583;49.084;8.646;2023-02-28T02:15:26;-1.40;99.90
20845;DHT22;10583;49.084;8.646;2023-02-28T02:17:57;-1.40;99.90
20845;DHT22;10583;49.084;8.646;2023-02-28T02:20:46;-1.40;99.90
20845;DHT22;10583;49.084;8.646;2023-02-28T02:23:45;-1.40;99.90
20845;DHT22;10583;49.084;8.646;2023-02-28T02:26:47;-1.50;99.90
20845;DHT22;10583;49.084;8.646;2023-02-28T02:32:56;-1.50;99.90
20845;DHT22;10583;49.084;8.646;2023-02-28T02:35:31;-1.60;99.90
20845;DHT22;10583;49.084;8.646;2023-02-28T02:38:08;-1.60;99.90
20845;DHT22;10583;49.084;8.646;2023-02-28T02:40:40;-1.60;99.90
20845;DHT22;10583;49.084;8.646;2023-02-28T02:43:15;-1.60;99.90
20845;DHT22;10583;49.084;8.646;2023-02-28T02:45:46;-1.60;99.90
20845;DHT22;10583;49.084;8.646;2023-02-28T02:48:17;-1.70;99.90
20845;DHT22;10583;49.084;8.646;2023-02-28T02:50:50;-1.60;99.90
20845;DHT22;10583;49.084;8.646;2023-02-28T02:53:21;-1.70;99.90
20845;DHT22;10583;49.084;8.646;2023-02-28T02:55:52;-1.60;99.90
20845;DHT22;10583;49.084;8.646;2023-02-28T02:58:23;-1.70;99.90
20845;DHT22;10583;49.084;8.646;2023-02-28T03:00:54;-1.60;99.90
20845;DHT22;10583;49.084;8.646;2023-02-28T03:03:21;-1.70;99.90
20845;DHT22;10583;49.084;8.646;2023-02-28T03:05:56;-1.60;99.90
20845;DHT22;10583;49.084;8.646;2023-02-28T03:08:23;-1.70;99.90
20845;DHT22;10583;49.084;8.646;2023-02-28T03:10:51;-1.60;99.90
20845;DHT22;10583;49.084;8.646;2023-02-28T03:16:33;-1.60;99.90
20845;DHT22;10583;49.084;8.646;2023-02-28T03:19:14;-1.70;99.90
20845;DHT22;10583;49.084;8.646;2023-02-28T03:21:52;-1.60;99.90
20845;DHT22;10583;49.084;8.646;2023-02-28T03:24:26;-1.70;99.90
20845;DHT22;10583;49.084;8.646;2023-02-28T03:27:03;-1.70;99.90
20845;DHT22;10583;49.084;8.646;2023-02-28T03:29:34;-1.70;99.90
20845;DHT22;10583;49.084;8.646;2023-02-28T03:32:05;-1.70;99.90
20845;DHT22;10583;49.084;8.646;2023-02-28T03:34:38;-1.70;99.90
20845;DHT22;10583;49.084;8.646;2023-02-28T03:37:11;-1.70;99.90
20845;DHT22;10583;49.084;8.646;2023-02-28T03:39:42;-1.70;99.90
20845;DHT22;10583;49.084;8.646;2023-02-28T03:42:11;-1.60;99.90
20845;DHT22;10583;49.084;8.646;2023-02-28T03:44:42;-1.60;99.90
20845;DHT22;10583;49.084;8.646;2023-02-28T03:47:13;-1.50;99.90
20845;DHT22;10583;49.084;8.646;2023-02-28T03:49:46;-1.50;99.90
20845;DHT22;10583;49.084;8.646;2023-02-28T03:52:17;-1.40;99.90
20845;DHT22;10583;49.084;8.646;2023-02-28T03:54:47;-1.50;99.90
20845;DHT22;10583;49.084;8.646;2023-02-28T03:57:20;-1.50;99.90
20845;DHT22;10583;49.084;8.646;2023-02-28T03:59:54;-1.50;99.90
20845;DHT22;10583;49.084;8.646;2023-02-28T04:02:22;-1.40;99.90
20845;DHT22;10583;49.084;8.646;2023-02-28T04:04:49;-1.40;99.90
20845;DHT22;10583;49.084;8.646;2023-02-28T04:07:17;-1.40;99.90
20845;DHT22;10583;49.084;8.646;2023-02-28T04:09:44;-1.40;99.90
20845;DHT22;10583;49.084;8.646;2023-02-28T04:12:11;-1.30;99.90
20845;DHT22;10583;49.084;8.646;2023-02-28T04:14:38;-1.30;99.90
20845;DHT22;10583;49.084;8.646;2023-02-28T04:17:04;-1.30;99.90
20845;DHT22;10583;49.084;8.646;2023-02-28T04:19:31;-1.20;99.90
20845;DHT22;10583;49.084;8.646;2023-02-28T04:21:58;-1.30;99.90
20845;DHT22;10583;49.084;8.646;2023-02-28T04:24:27;-1.30;99.90
20845;DHT22;10583;49.084;8.646;2023-02-28T04:26:56;-1.20;99.90
20845;DHT22;10583;49.084;8.646;2023-02-28T04:29:25;-1.20;99.90
20845;DHT22;10583;49.084;8.646;2023-02-28T04:31:52;-1.20;99.90
20845;DHT22;10583;49.084;8.646;2023-02-28T04:34:20;-1.20;99.90
20845;DHT22;10583;49.084;8.646;2023-02-28T04:36:47;-1.20;99.90
20845;DHT22;10583;49.084;8.646;2023-02-28T04:39:16;-1.20;99.90
20845;DHT22;10583;49.084;8.646;2023-02-28T04:41:45;-1.20;99.90
20845;DHT22;10583;49.084;8.646;2023-02-28T04:44:12;-1.20;99.90
20845;DHT22;10583;49.084;8.646;2023-02-28T04:46:39;-1.30;99.90
20845;DHT22;10583;49.084;8.646;2023-02-28T04:49:06;-1.30;99.90
20845;DHT22;10583;49.084;8.646;2023-02-28T04:51:34;-1.30;99.90
20845;DHT22;10583;49.084;8.646;2023-02-28T04:54:01;-1.20;99.90
20845;DHT22;10583;49.084;8.646;2023-02-28T04:56:27;-1.30;99.90
20845;DHT22;10583;49.084;8.646;2023-02-28T04:58:55;-1.30;99.90
20845;DHT22;10583;49.084;8.646;2023-02-28T05:01:24;-1.30;99.90
20845;DHT22;10583;49.084;8.646;2023-02-28T05:03:52;-1.30;99.90
20845;DHT22;10583;49.084;8.646;2023-02-28T05:06:20;-1.30;99.90
20845;DHT22;10583;49.084;8.646;2023-02-28T05:08:47;-1.30;99.90
20845;DHT22;10583;49.084;8.646;2023-02-28T05:11:17;-1.30;99.90
20845;DHT22;10583;49.084;8.646;2023-02-28T05:13:44;-1.30;99.90
20845;DHT22;10583;49.084;8.646;2023-02-28T05:16:13;-1.30;99.90
20845;DHT22;10583;49.084;8.646;2023-02-28T05:18:40;-1.30;99.90
20845;DHT22;10583;49.084;8.646;2023-02-28T05:21:22;-1.30;99.90
20845;DHT22;10583;49.084;8.646;2023-02-28T05:23:50;-1.30;99.90
20845;DHT22;10583;49.084;8.646;2023-02-28T05:26:17;-1.30;99.90
20845;DHT22;10583;49.084;8.646;2023-02-28T05:28:43;-1.20;99.90
20845;DHT22;10583;49.084;8.646;2023-02-28T05:31:12;-1.20;99.90
20845;DHT22;10583;49.084;8.646;2023-02-28T05:33:38;-1.10;99.90
20845;DHT22;10583;49.084;8.646;2023-02-28T05:36:06;-1.10;99.90
20845;DHT22;10583;49.084;8.646;2023-02-28T05:38:33;-1.10;99.90
20845;DHT22;10583;49.084;8.646;2023-02-28T05:41:04;-1.20;99.90
20845;DHT22;10583;49.084;8.646;2023-02-28T05:43:30;-1.10;99.90
20845;DHT22;10583;49.084;8.646;2023-02-28T05:45:57;-1.10;99.90
20845;DHT22;10583;49.084;8.646;2023-02-28T05:48:25;-1.10;99.90
20845;DHT22;10583;49.084;8.646;2023-02-28T05:50:52;-1.20;99.90
20845;DHT22;10583;49.084;8.646;2023-02-28T05:53:19;-1.20;99.90
20845;DHT22;10583;49.084;8.646;2023-02-28T05:55:45;-1.10;99.90
20845;DHT22;10583;49.084;8.646;2023-02-28T05:58:12;-1.20;99.90
20845;DHT22;10583;49.084;8.646;2023-02-28T06:00:39;-1.20;99.90
20845;DHT22;10583;49.084;8.646;2023-02-28T06:03:05;-1.10;99.90
20845;DHT22;10583;49.084;8.646;2023-02-28T06:05:33;-1.10;99.90
20845;DHT22;10583;49.084;8.646;2023-02-28T06:08:00;-1.10;99.90
20845;DHT22;10583;49.084;8.646;2023-02-28T06:10:27;-1.10;99.90
20845;DHT22;10583;49.084;8.646;2023-02-28T06:12:53;-1.10;99.90
20845;DHT22;10583;49.084;8.646;2023-02-28T06:15:20;-1.10;99.90
20845;DHT22;10583;49.084;8.646;2023-02-28T06:17:47;-1.10;99.90
20845;DHT22;10583;49.084;8.646;2023-02-28T06:20:14;-1.00;99.90
20845;DHT22;10583;49.084;8.646;2023-02-28T06:22:42;-1.00;99.90
20845;DHT22;10583;49.084;8.646;2023-02-28T06:25:09;-1.10;99.90
20845;DHT22;10583;49.084;8.646;2023-02-28T06:27:36;-1.10;99.90
20845;DHT22;10583;49.084;8.646;2023-02-28T06:30:04;-1.00;99.90
20845;DHT22;10583;49.084;8.646;2023-02-28T06:32:33;-1.00;99.90
20845;DHT22;10583;49.084;8.646;2023-02-28T06:35:01;-1.00;99.90
20845;DHT22;10583;49.084;8.646;2023-02-28T06:37:28;-1.00;99.90
20845;DHT22;10583;49.084;8.646;2023-02-28T06:39:56;-1.00;99.90
20845;DHT22;10583;49.084;8.646;2023-02-28T06:42:23;-0.90;99.90
20845;DHT22;10583;49.084;8.646;2023-02-28T06:44:54;-0.90;99.90
20845;DHT22;10583;49.084;8.646;2023-02-28T06:47:21;-0.90;99.90
20845;DHT22;10583;49.084;8.646;2023-02-28T06:49:48;-0.90;99.90
20845;DHT22;10583;49.084;8.646;2023-02-28T06:52:15;-0.90;99.90
20845;DHT22;10583;49.084;8.646;2023-02-28T06:54:42;-0.80;99.90
20845;DHT22;10583;49.084;8.646;2023-02-28T06:57:10;-0.80;99.90
20845;DHT22;10583;49.084;8.646;2023-02-28T06:59:36;-0.70;99.90
20845;DHT22;10583;49.084;8.646;2023-02-28T07:02:03;-0.70;99.90
20845;DHT22;10583;49.084;8.646;2023-02-28T07:04:31;-0.70;99.90
20845;DHT22;10583;49.084;8.646;2023-02-28T07:06:58;-0.80;99.90
20845;DHT22;10583;49.084;8.646;2023-02-28T07:09:25;-0.70;99.90
20845;DHT22;10583;49.084;8.646;2023-02-28T07:11:55;-0.70;99.90
20845;DHT22;10583;49.084;8.646;2023-02-28T07:14:23;-0.70;99.90
20845;DHT22;10583;49.084;8.646;2023-02-28T07:16:49;-0.60;99.90
20845;DHT22;10583;49.084;8.646;2023-02-28T07:19:16;-0.50;99.90
20845;DHT22;10583;49.084;8.646;2023-02-28T07:21:43;-0.50;99.90
20845;DHT22;10583;49.084;8.646;2023-02-28T07:24:10;-0.50;99.90
20845;DHT22;10583;49.084;8.646;2023-02-28T07:26:37;-0.50;99.90
20845;DHT22;10583;49.084;8.646;2023-02-28T07:29:04;-0.50;99.90
20845;DHT22;10583;49.084;8.646;2023-02-28T07:31:32;-0.50;99.90
20845;DHT22;10583;49.084;8.646;2023-02-28T07:33:58;-0.40;99.90
20845;DHT22;10583;49.084;8.646;2023-02-28T07:36:25;-0.50;99.90
20845;DHT22;10583;49.084;8.646;2023-02-28T07:38:52;-0.40;99.90
20845;DHT22;10583;49.084;8.646;2023-02-28T07:41:21;-0.40;99.90
20845;DHT22;10583;49.084;8.646;2023-02-28T07:43:48;-0.40;99.90
20845;DHT22;10583;49.084;8.646;2023-02-28T07:46:16;-0.40;99.90
20845;DHT22;10583;49.084;8.646;2023-02-28T07:48:46;-0.40;99.90
20845;DHT22;10583;49.084;8.646;2023-02-28T07:51:13;-0.30;99.90
20845;DHT22;10583;49.084;8.646;2023-02-28T07:53:40;-0.30;99.90
20845;DHT22;10583;49.084;8.646;2023-02-28T07:56:07;-0.40;99.90
20845;DHT22;10583;49.084;8.646;2023-02-28T07:58:34;-0.30;99.90
20845;DHT22;10583;49.084;8.646;2023-02-28T08:01:05;-0.30;99.90
20845;DHT22;10583;49.084;8.646;2023-02-28T08:03:32;-0.20;99.90
20845;DHT22;10583;49.084;8.646;2023-02-28T08:06:01;-0.20;99.90
20845;DHT22;10583;49.084;8.646;2023-02-28T08:08:28;-0.10;99.90
20845;DHT22;10583;49.084;8.646;2023-02-28T08:10:58;0.00;99.90
20845;DHT22;10583;49.084;8.646;2023-02-28T08:13:25;0.00;99.90
20845;DHT22;10583;49.084;8.646;2023-02-28T08:15:52;0.10;99.90
20845;DHT22;10583;49.084;8.646;2023-02-28T08:18:19;0.20;99.90
20845;DHT22;10583;49.084;8.646;2023-02-28T08:20:46;0.20;99.90
20845;DHT22;10583;49.084;8.646;2023-02-28T08:23:14;0.30;99.90
20845;DHT22;10583;49.084;8.646;2023-02-28T08:25:41;0.40;99.90
20845;DHT22;10583;49.084;8.646;2023-02-28T08:28:08;0.40;99.90
20845;DHT22;10583;49.084;8.646;2023-02-28T08:30:34;0.50;99.90
20845;DHT22;10583;49.084;8.646;2023-02-28T08:33:01;0.60;99.90
20845;DHT22;10583;49.084;8.646;2023-02-28T08:35:28;0.70;99.90
20845;DHT22;10583;49.084;8.646;2023-02-28T08:37:54;0.70;99.90
20845;DHT22;10583;49.084;8.646;2023-02-28T08:40:22;0.80;99.90
20845;DHT22;10583;49.084;8.646;2023-02-28T08:42:49;0.90;99.90
20845;DHT22;10583;49.084;8.646;2023-02-28T08:45:16;1.20;99.90
20845;DHT22;10583;49.084;8.646;2023-02-28T08:47:43;1.60;99.90
20845;DHT22;10583;49.084;8.646;2023-02-28T08:50:10;1.90;99.90
20845;DHT22;10583;49.084;8.646;2023-02-28T08:52:38;2.10;99.90
20845;DHT22;10583;49.084;8.646;2023-02-28T08:55:05;2.20;99.90
20845;DHT22;10583;49.084;8.646;2023-02-28T08:57:33;2.00;99.90
20845;DHT22;10583;49.084;8.646;2023-02-28T09:00:00;1.90;99.90
20845;DHT22;10583;49.084;8.646;2023-02-28T09:02:29;2.10;99.90
20845;DHT22;10583;49.084;8.646;2023-02-28T09:04:56;2.40;99.90
20845;DHT22;10583;49.084;8.646;2023-02-28T09:07:23;2.60;99.90
20845;DHT22;10583;49.084;8.646;2023-02-28T09:09:50;2.60;99.90
20845;DHT22;10583;49.084;8.646;2023-02-28T09:12:20;2.80;99.90
20845;DHT22;10583;49.084;8.646;2023-02-28T09:14:48;3.10;99.90
20845;DHT22;10583;49.084;8.646;2023-02-28T09:17:15;3.10;99.90
20845;DHT22;10583;49.084;8.646;2023-02-28T09:19:42;3.00;99.90
20845;DHT22;10583;49.084;8.646;2023-02-28T09:22:09;3.20;99.90
20845;DHT22;10583;49.084;8.646;2023-02-28T09:24:36;3.10;99.90
20845;DHT22;10583;49.084;8.646;2023-02-28T09:27:03;3.30;99.90
20845;DHT22;10583;49.084;8.646;2023-02-28T09:29:30;3.40;99.90
20845;DHT22;10583;49.084;8.646;2023-02-28T09:31:59;3.70;99.90
20845;DHT22;10583;49.084;8.646;2023-02-28T09:34:26;3.80;99.90
20845;DHT22;10583;49.084;8.646;2023-02-28T09:36:53;4.00;99.90
20845;DHT22;10583;49.084;8.646;2023-02-28T09:39:21;4.30;99.90
20845;DHT22;10583;49.084;8.646;2023-02-28T09:41:50;4.30;99.90
20845;DHT22;10583;49.084;8.646;2023-02-28T09:44:22;4.10;99.90
20845;DHT22;10583;49.084;8.646;2023-02-28T09:46:54;3.90;99.90
20845;DHT22;10583;49.084;8.646;2023-02-28T09:49:27;4.00;99.90
20845;DHT22;10583;49.084;8.646;2023-02-28T09:51:57;3.80;99.90
20845;DHT22;10583;49.084;8.646;2023-02-28T09:54:28;3.60;99.90
20845;DHT22;10583;49.084;8.646;2023-02-28T09:56:59;3.80;99.90
20845;DHT22;10583;49.084;8.646;2023-02-28T09:59:35;4.10;99.90
20845;DHT22;10583;49.084;8.646;2023-02-28T10:02:16;4.10;99.90
20845;DHT22;10583;49.084;8.646;2023-02-28T10:04:48;4.10;99.90
20845;DHT22;10583;49.084;8.646;2023-02-28T10:07:28;4.20;99.90
20845;DHT22;10583;49.084;8.646;2023-02-28T10:10:04;3.80;99.90
20845;DHT22;10583;49.084;8.646;2023-02-28T10:12:32;3.50;99.90
20845;DHT22;10583;49.084;8.646;2023-02-28T10:14:59;3.40;99.90
20845;DHT22;10583;49.084;8.646;2023-02-28T10:17:34;3.20;99.90
20845;DHT22;10583;49.084;8.646;2023-02-28T10:20:07;3.20;99.90
20845;DHT22;10583;49.084;8.646;2023-02-28T10:22:44;3.40;99.90
20845;DHT22;10583;49.084;8.646;2023-02-28T10:25:19;3.40;99.90
20845;DHT22;10583;49.084;8.646;2023-02-28T10:27:46;3.50;99.90
20845;DHT22;10583;49.084;8.646;2023-02-28T10:30:13;3.60;99.90
20845;DHT22;10583;49.084;8.646;2023-02-28T10:32:47;3.50;99.90
20845;DHT22;10583;49.084;8.646;2023-02-28T10:35:17;3.30;99.90
20845;DHT22;10583;49.084;8.646;2023-02-28T10:37:46;3.20;99.90
20845;DHT22;10583;49.084;8.646;2023-02-28T10:40:28;3.20;99.90
20845;DHT22;10583;49.084;8.646;2023-02-28T10:42:56;3.00;99.90
20845;DHT22;10583;49.084;8.646;2023-02-28T10:45:23;3.00;99.90
20845;DHT22;10583;49.084;8.646;2023-02-28T10:47:53;3.10;99.90
20845;DHT22;10583;49.084;8.646;2023-02-28T10:50:31;3.00;99.90
20845;DHT22;10583;49.084;8.646;2023-02-28T10:53:14;2.80;99.90
20845;DHT22;10583;49.084;8.646;2023-02-28T10:55:43;2.80;99.90
20845;DHT22;10583;49.084;8.646;2023-02-28T10:58:21;2.70;99.90
20845;DHT22;10583;49.084;8.646;2023-02-28T11:00:49;2.70;99.90
20845;DHT22;10583;49.084;8.646;2023-02-28T11:03:29;2.70;99.90
20845;DHT22;10583;49.084;8.646;2023-02-28T11:05:58;2.80;99.90
20845;DHT22;10583;49.084;8.646;2023-02-28T11:08:25;2.90;99.90
20845;DHT22;10583;49.084;8.646;2023-02-28T11:10:57;2.90;99.90
20845;DHT22;10583;49.084;8.646;2023-02-28T11:13:28;2.90;99.90
20845;DHT22;10583;49.084;8.646;2023-02-28T11:15:57;3.00;99.90
20845;DHT22;10583;49.084;8.646;2023-02-28T11:18:27;3.10;99.90
20845;DHT22;10583;49.084;8.646;2023-02-28T11:20:59;3.00;99.90
20845;DHT22;10583;49.084;8.646;2023-02-28T11:23:28;3.00;99.90
20845;DHT22;10583;49.084;8.646;2023-02-28T11:25:59;3.00;99.90
20845;DHT22;10583;49.084;8.646;2023-02-28T11:28:29;3.10;99.90
20845;DHT22;10583;49.084;8.646;2023-02-28T11:31:15;3.20;99.90
20845;DHT22;10583;49.084;8.646;2023-02-28T11:33:45;3.30;99.90
20845;DHT22;10583;49.084;8.646;2023-02-28T11:36:18;3.40;99.90
20845;DHT22;10583;49.084;8.646;2023-02-28T11:38:45;3.70;99.90
20845;DHT22;10583;49.084;8.646;2023-02-28T11:41:30;3.80;99.90
20845;DHT22;10583;49.084;8.646;2023-02-28T11:44:09;4.00;99.90
20845;DHT22;10583;49.084;8.646;2023-02-28T11:46:44;3.80;99.90
20845;DHT22;10583;49.084;8.646;2023-02-28T11:49:28;3.80;99.90
20845;DHT22;10583;49.084;8.646;2023-02-28T11:52:01;4.10;99.90
20845;DHT22;10583;49.084;8.646;2023-02-28T11:55:03;4.20;99.90
20845;DHT22;10583;49.084;8.646;2023-02-28T11:57:56;4.20;99.90
20845;DHT22;10583;49.084;8.646;2023-02-28T12:00:39;4.20;99.90
20845;DHT22;10583;49.084;8.646;2023-02-28T12:03:16;4.00;99.90
20845;DHT22;10583;49.084;8.646;2023-02-28T12:05:48;4.00;99.90
20845;DHT22;10583;49.084;8.646;2023-02-28T12:08:29;4.10;99.90
20845;DHT22;10583;49.084;8.646;2023-02-28T12:11:06;4.10;99.90
20845;DHT22;10583;49.084;8.646;2023-02-28T12:13:45;4.20;99.90
20845;DHT22;10583;49.084;8.646;2023-02-28T12:16:37;4.20;99.90
20845;DHT22;10583;49.084;8.646;2023-02-28T12:19:16;4.10;99.90
20845;DHT22;10583;49.084;8.646;2023-02-28T12:21:59;4.10;99.90
20845;DHT22;10583;49.084;8.646;2023-02-28T12:24:43;4.30;99.90
20845;DHT22;10583;49.084;8.646;2023-02-28T12:27:17;4.30;99.90
20845;DHT22;10583;49.084;8.646;2023-02-28T12:29:49;4.50;99.90
20845;DHT22;10583;49.084;8.646;2023-02-28T12:32:21;4.80;99.90
20845;DHT22;10583;49.084;8.646;2023-02-28T12:34:53;5.00;99.90
20845;DHT22;10583;49.084;8.646;2023-02-28T12:37:25;5.30;99.90
20845;DHT22;10583;49.084;8.646;2023-02-28T12:40:01;5.60;99.90
20845;DHT22;10583;49.084;8.646;2023-02-28T12:42:34;5.80;99.90
20845;DHT22;10583;49.084;8.646;2023-02-28T12:45:06;5.70;99.90
20845;DHT22;10583;49.084;8.646;2023-02-28T12:47:34;5.90;99.90
20845;DHT22;10583;49.084;8.646;2023-02-28T12:50:04;5.80;99.10
20845;DHT22;10583;49.084;8.646;2023-02-28T12:52:37;6.00;99.10
20845;DHT22;10583;49.084;8.646;2023-02-28T12:55:14;6.00;99.40
20845;DHT22;10583;49.084;8.646;2023-02-28T12:57:46;6.30;99.50
20845;DHT22;10583;49.084;8.646;2023-02-28T13:00:16;6.40;99.10
20845;DHT22;10583;49.084;8.646;2023-02-28T13:03:15;6.30;99.10
20845;DHT22;10583;49.084;8.646;2023-02-28T13:06:20;6.00;99.00
20845;DHT22;10583;49.084;8.646;2023-02-28T13:09:09;6.20;99.90
20845;DHT22;10583;49.084;8.646;2023-02-28T13:11:43;6.00;98.60
20845;DHT22;10583;49.084;8.646;2023-02-28T13:14:24;5.70;99.50
20845;DHT22;10583;49.084;8.646;2023-02-28T13:17:03;5.80;99.70
20845;DHT22;10583;49.084;8.646;2023-02-28T13:19:38;5.80;99.10
20845;DHT22;10583;49.084;8.646;2023-02-28T13:22:17;5.70;99.20
20845;DHT22;10583;49.084;8.646;2023-02-28T13:24:46;5.80;99.90
20845;DHT22;10583;49.084;8.646;2023-02-28T13:27:34;5.90;99.00
20845;DHT22;10583;49.084;8.646;2023-02-28T13:33:26;5.60;99.90
20845;DHT22;10583;49.084;8.646;2023-02-28T13:36:22;5.70;99.90
20845;DHT22;10583;49.084;8.646;2023-02-28T13:38:49;5.70;99.80
20845;DHT22;10583;49.084;8.646;2023-02-28T13:41:42;5.50;99.90
20845;DHT22;10583;49.084;8.646;2023-02-28T13:44:12;5.40;99.90
20845;DHT22;10583;49.084;8.646;2023-02-28T13:49:39;5.60;99.90
20845;DHT22;10583;49.084;8.646;2023-02-28T13:52:11;5.90;99.90
20845;DHT22;10583;49.084;8.646;2023-02-28T13:55:11;6.00;99.20
20845;DHT22;10583;49.084;8.646;2023-02-28T13:57:49;6.10;99.90
20845;DHT22;10583;49.084;8.646;2023-02-28T14:00:28;5.90;99.70
20845;DHT22;10583;49.084;8.646;2023-02-28T14:03:17;5.80;99.40
20845;DHT22;10583;49.084;8.646;2023-02-28T14:06:08;6.00;99.90
20845;DHT22;10583;49.084;8.646;2023-02-28T14:08:36;6.00;99.80
20845;DHT22;10583;49.084;8.646;2023-02-28T14:11:05;6.10;99.90
20845;DHT22;10583;49.084;8.646;2023-02-28T14:13:41;6.10;99.20
20845;DHT22;10583;49.084;8.646;2023-02-28T14:16:13;6.10;99.50
20845;DHT22;10583;49.084;8.646;2023-02-28T14:18:42;6.10;99.30
20845;DHT22;10583;49.084;8.646;2023-02-28T14:21:21;5.90;99.90
20845;DHT22;10583;49.084;8.646;2023-02-28T14:24:15;5.70;99.90
20845;DHT22;10583;49.084;8.646;2023-02-28T14:27:07;5.60;99.90
20845;DHT22;10583;49.084;8.646;2023-02-28T14:29:59;5.70;99.90
20845;DHT22;10583;49.084;8.646;2023-02-28T14:32:34;5.50;99.90
20845;DHT22;10583;49.084;8.646;2023-02-28T14:35:13;5.50;99.90
20845;DHT22;10583;49.084;8.646;2023-02-28T14:37:44;5.50;99.90
20845;DHT22;10583;49.084;8.646;2023-02-28T14:40:14;5.50;99.80
20845;DHT22;10583;49.084;8.646;2023-02-28T14:42:47;5.50;99.90
20845;DHT22;10583;49.084;8.646;2023-02-28T14:45:19;5.50;99.90
20845;DHT22;10583;49.084;8.646;2023-02-28T14:47:49;5.50;99.90
20845;DHT22;10583;49.084;8.646;2023-02-28T14:50:21;5.30;99.90
20845;DHT22;10583;49.084;8.646;2023-02-28T14:52:51;5.30;99.90
20845;DHT22;10583;49.084;8.646;2023-02-28T14:55:23;5.40;99.90
20845;DHT22;10583;49.084;8.646;2023-02-28T14:57:51;5.40;99.90
20845;DHT22;10583;49.084;8.646;2023-02-28T15:00:22;5.40;99.90
20845;DHT22;10583;49.084;8.646;2023-02-28T15:02:51;5.40;99.90
20845;DHT22;10583;49.084;8.646;2023-02-28T15:05:27;5.40;99.90
20845;DHT22;10583;49.084;8.646;2023-02-28T15:08:09;5.40;99.90
20845;DHT22;10583;49.084;8.646;2023-02-28T15:10:37;5.30;99.90
20845;DHT22;10583;49.084;8.646;2023-02-28T15:13:07;5.20;99.90
20845;DHT22;10583;49.084;8.646;2023-02-28T15:15:41;5.30;99.90
20845;DHT22;10583;49.084;8.646;2023-02-28T15:18:16;5.20;99.90
20845;DHT22;10583;49.084;8.646;2023-02-28T15:20:47;5.10;99.90
20845;DHT22;10583;49.084;8.646;2023-02-28T15:23:15;5.10;99.90
20845;DHT22;10583;49.084;8.646;2023-02-28T15:25:43;5.10;99.90
20845;DHT22;10583;49.084;8.646;2023-02-28T15:28:14;5.10;99.90
20845;DHT22;10583;49.084;8.646;2023-02-28T15:30:51;5.10;99.90
20845;DHT22;10583;49.084;8.646;2023-02-28T15:33:22;5.00;99.90
20845;DHT22;10583;49.084;8.646;2023-02-28T15:35:49;5.00;99.90
20845;DHT22;10583;49.084;8.646;2023-02-28T15:38:21;5.00;99.90
20845;DHT22;10583;49.084;8.646;2023-02-28T15:40:51;4.90;99.90
20845;DHT22;10583;49.084;8.646;2023-02-28T15:43:27;4.80;99.90
20845;DHT22;10583;49.084;8.646;2023-02-28T15:45:57;4.80;99.90
20845;DHT22;10583;49.084;8.646;2023-02-28T15:48:28;4.80;99.90
20845;DHT22;10583;49.084;8.646;2023-02-28T15:50:57;4.70;99.90
20845;DHT22;10583;49.084;8.646;2023-02-28T15:53:29;4.70;99.90
20845;DHT22;10583;49.084;8.646;2023-02-28T15:56:00;4.60;99.90
20845;DHT22;10583;49.084;8.646;2023-02-28T15:58:27;4.60;99.90
20845;DHT22;10583;49.084;8.646;2023-02-28T16:01:05;4.50;99.90
20845;DHT22;10583;49.084;8.646;2023-02-28T16:03:39;4.50;99.90
20845;DHT22;10583;49.084;8.646;2023-02-28T16:06:32;4.40;99.90
20845;DHT22;10583;49.084;8.646;2023-02-28T16:08:58;4.40;99.90
20845;DHT22;10583;49.084;8.646;2023-02-28T16:11:25;4.40;99.90
20845;DHT22;10583;49.084;8.646;2023-02-28T16:13:52;4.40;99.90
20845;DHT22;10583;49.084;8.646;2023-02-28T16:16:21;4.40;99.90